Flight Track Log - Related Links

Times and Time Zones

All times are in EDT time to prevent confusion due to time zone crossing. See the N128CM flight status page for this flight to view local times or setup timezone preferences in your user account.

Time Position Orientation Groundspeed Altitude Reporting Facility
EDT Latitude Longitude Course Direction KTS MPH feet Rate Location/Type
Sun 02:11:36 PM 39.5483 -121.6490 17° North 3,900  Level Oakland Center
Sun 02:12:37 PM 39.5858 -121.6340 13° North 151 174 5,000 1,125 Climbing Oakland Center
Sun 02:13:12 PM 39.6131 -121.6260 313° West 151 174 5,700 1,200 Climbing Oakland Center
Sun 02:14:12 PM 39.6358 -121.6580 297° West 125 144 6,900 1,250 Climbing Oakland Center
Sun 02:15:12 PM 39.6542 -121.7040 322° Northwest 118 136 8,200 1,350 Climbing Oakland Center
Sun 02:16:12 PM 39.6833 -121.7340 359° North 130 150 9,600 1,250 Climbing Oakland Center
Sun 02:17:12 PM 39.7250 -121.7350 39° Northeast 130 150 10,700 950 Climbing Oakland Center
Sun 02:18:12 PM 39.7586 -121.7000 96° East 139 160 11,500 950 Climbing Oakland Center
Sun 02:19:12 PM 39.7525 -121.6300 96° East 141 162 12,600 1,050 Climbing Oakland Center
Sun 02:20:12 PM 39.7467 -121.5590 92° East 156 180 13,600 950 Climbing Oakland Center
Sun 02:21:12 PM 39.7450 -121.4860 57° Northeast 182 209 14,500 1,000 Climbing Oakland Center
Sun 02:22:12 PM 39.7744 -121.4270 68° East 182 209 15,600 1,150 Climbing Oakland Center
Sun 02:23:12 PM 39.7956 -121.3600 64° Northeast 187 215 16,800 1,100 Climbing Oakland Center
Sun 02:24:12 PM 39.8186 -121.2980 67° East 192 221 17,800 1,050 Climbing Oakland Center
Sun 02:25:12 PM 39.8397 -121.2330 65° Northeast 192 221 18,900 1,000 Climbing Oakland Center
Sun 02:26:12 PM 39.8628 -121.1680 59° Northeast 192 221 19,800 850 Climbing Oakland Center
Sun 02:27:12 PM 39.8900 -121.1090 64° Northeast 192 221 20,600 850 Climbing Oakland Center
Sun 02:28:12 PM 39.9169 -121.0380 66° East 197 227 21,500 850 Climbing Oakland Center
Sun 02:29:12 PM 39.9419 -120.9650 46° Northeast 202 232 22,300 750 Climbing Oakland Center
Sun 02:30:12 PM 39.9817 -120.9110 47° Northeast 202 232 23,000 600 Climbing Oakland Center
Sun 02:31:12 PM 40.0150 -120.8650 52° Northeast 207 238 23,500 650 Climbing Oakland Center
Sun 02:32:12 PM 40.0586 -120.7920 48° Northeast 212 244 24,300 650 Climbing Oakland Center
Sun 02:33:12 PM 40.1003 -120.7320 49° Northeast 212 244 24,800 350 Climbing Oakland Center
Sun 02:34:12 PM 40.1397 -120.6720 47° Northeast 212 244 25,000 91 Climbing Oakland Center
Sun 02:35:24 PM 40.1958 -120.5930 50° Northeast 222 255 25,000  Level Oakland Center
Sun 02:36:24 PM 40.2414 -120.5220 44° Northeast 234 269 25,000  Level Oakland Center
Sun 02:37:24 PM 40.2828 -120.4700 49° Northeast 245 282 25,000  Level Oakland Center
Sun 02:38:24 PM 40.3344 -120.3930 49° Northeast 245 282 25,000  Level Oakland Center
Sun 02:39:24 PM 40.3842 -120.3190 49° Northeast 256 295 25,000  Level Oakland Center
Sun 02:40:24 PM 40.4317 -120.2480 48° Northeast 263 303 25,000  Level Oakland Center
Sun 02:41:24 PM 40.4853 -120.1710 50° Northeast 263 303 25,000  Level Oakland Center
Sun 02:42:24 PM 40.5369 -120.0910 30° Northeast 263 303 25,000  Level Oakland Center
Sun 02:42:40 PM 40.5461 -120.0840 49° Northeast 263 303 25,000  Level Salt Lake Center
Sun 02:43:40 PM 40.5961 -120.0090 48° Northeast 268 308 25,000  Level Salt Lake Center
Sun 02:44:40 PM 40.6461 -119.9360 48° Northeast 268 308 25,000  Level Salt Lake Center
Sun 02:45:40 PM 40.6958 -119.8640 48° Northeast 268 308 25,000  Level Salt Lake Center
Sun 02:46:40 PM 40.7456 -119.7910 50° Northeast 268 308 25,000  Level Salt Lake Center
Sun 02:47:40 PM 40.7956 -119.7130 48° Northeast 268 308 25,000  Level Salt Lake Center
Sun 02:48:39 PM 40.8475 -119.6370 48° Northeast 268 308 25,000  Level Salt Lake Center
Sun 02:49:40 PM 40.8947 -119.5670 49° Northeast 266 306 25,000  Level Salt Lake Center
Sun 02:50:39 PM 40.9469 -119.4880 45° Northeast 266 306 25,000  Level Salt Lake Center
Sun 02:51:39 PM 40.9864 -119.4360 52° Northeast 266 306 25,000  Level Salt Lake Center
Sun 02:52:39 PM 41.0464 -119.3340 49° Northeast 260 299 25,000  Level Salt Lake Center
Sun 02:53:40 PM 41.0892 -119.2680 48° Northeast 260 299 25,000  Level Salt Lake Center
Sun 02:54:40 PM 41.1456 -119.1840 49° Northeast 266 306 25,000  Level Salt Lake Center
Sun 02:55:40 PM 41.1947 -119.1100 50° Northeast 266 306 25,000  Level Salt Lake Center
Sun 02:56:40 PM 41.2419 -119.0360 48° Northeast 266 306 25,000  Level Salt Lake Center
Sun 02:57:40 PM 41.2867 -118.9700 49° Northeast 266 306 25,000  Level Salt Lake Center
Sun 02:58:39 PM 41.3358 -118.8960 49° Northeast 273 314 25,000  Level Salt Lake Center
Sun 02:59:40 PM 41.3919 -118.8110 49° Northeast 268 308 25,000  Level Salt Lake Center
Sun 03:00:39 PM 41.4414 -118.7340 48° Northeast 268 308 25,000  Level Salt Lake Center
Sun 03:01:39 PM 41.4856 -118.6680 49° Northeast 268 308 25,000  Level Salt Lake Center
Sun 03:02:39 PM 41.5347 -118.5930 49° Northeast 268 308 25,000  Level Salt Lake Center
Sun 03:03:40 PM 41.5906 -118.5080 50° Northeast 273 314 25,000  Level Salt Lake Center
Sun 03:04:40 PM 41.6397 -118.4310 50° Northeast 273 314 25,000  Level Salt Lake Center
Sun 03:05:40 PM 41.6842 -118.3610 50° Northeast 273 314 25,000  Level Salt Lake Center
Sun 03:06:40 PM 41.7331 -118.2830 49° Northeast 268 308 25,000  Level Salt Lake Center
Sun 03:07:39 PM 41.7914 -118.1920 47° Northeast 273 314 25,000  Level Salt Lake Center
Sun 03:08:40 PM 41.8422 -118.1180 49° Northeast 280 322 25,000  Level Salt Lake Center
Sun 03:09:39 PM 41.8908 -118.0420 52° Northeast 280 322 25,000  Level Salt Lake Center
Sun 03:10:39 PM 41.9356 -117.9660 48° Northeast 274 315 25,000  Level Salt Lake Center
Sun 03:11:40 PM 41.9908 -117.8830 50° Northeast 274 315 25,000  Level Salt Lake Center
Sun 03:12:39 PM 42.0417 -117.8020 51° Northeast 274 315 25,000  Level Salt Lake Center
Sun 03:13:39 PM 42.0906 -117.7210 47° Northeast 274 315 25,000  Level Salt Lake Center
Sun 03:14:39 PM 42.1389 -117.6500 50° Northeast 279 321 25,000  Level Salt Lake Center
Sun 03:15:40 PM 42.1919 -117.5640 49° Northeast 279 321 25,000  Level Salt Lake Center
Sun 03:16:39 PM 42.2425 -117.4850 52° Northeast 279 321 25,000  Level Salt Lake Center
Sun 03:17:40 PM 42.2889 -117.4060 50° Northeast 288 331 25,000  Level Salt Lake Center
Sun 03:18:39 PM 42.3372 -117.3290 50° Northeast 273 314 25,000  Level Salt Lake Center
Sun 03:19:40 PM 42.3903 -117.2420 51° Northeast 268 308 25,000  Level Salt Lake Center
Sun 03:20:39 PM 42.4386 -117.1620 51° Northeast 273 314 25,000  Level Salt Lake Center
Sun 03:21:51 PM 42.4825 -117.0880 49° Northeast 273 314 25,000  Level Salt Lake Center
Sun 03:22:51 PM 42.5464 -116.9870 52° Northeast 268 308 25,000  Level Salt Lake Center
Sun 03:23:52 PM 42.5947 -116.9040 48° Northeast 274 315 25,000  Level Salt Lake Center
Sun 03:24:51 PM 42.6403 -116.8360 52° Northeast 267 307 25,000  Level Salt Lake Center
Sun 03:25:52 PM 42.6883 -116.7530 50° Northeast 279 321 25,000  Level Salt Lake Center
Sun 03:27:03 PM 42.7408 -116.6670 52° Northeast 279 321 25,000  Level Salt Lake Center
Sun 03:28:04 PM 42.7936 -116.5760 49° Northeast 274 315 25,000  Level Salt Lake Center
Sun 03:29:03 PM 42.8503 -116.4880 50° Northeast 269 310 25,000  Level Salt Lake Center
Sun 03:30:03 PM 42.8978 -116.4100 52° Northeast 269 310 25,000  Level Salt Lake Center
Sun 03:31:04 PM 42.9458 -116.3260 52° Northeast 274 315 25,000  Level Salt Lake Center
Sun 03:32:04 PM 42.9892 -116.2510 50° Northeast 269 310 25,000  Level Salt Lake Center
Sun 03:33:04 PM 43.0433 -116.1640 51° Northeast 274 315 25,000  Level Salt Lake Center
Sun 03:34:04 PM 43.0908 -116.0830 51° Northeast 269 310 25,000  Level Salt Lake Center
Sun 03:35:04 PM 43.1364 -116.0050 49° Northeast 269 310 25,000  Level Salt Lake Center
Sun 03:36:04 PM 43.1833 -115.9320 53° Northeast 269 310 25,000  Level Salt Lake Center
Sun 03:37:03 PM 43.2311 -115.8450 51° Northeast 269 310 25,000  Level Salt Lake Center
Sun 03:38:04 PM 43.2783 -115.7660 51° Northeast 269 310 25,000  Level Salt Lake Center
Sun 03:39:03 PM 43.3258 -115.6840 52° Northeast 269 310 25,000  Level Salt Lake Center
Sun 03:40:04 PM 43.3664 -115.6130 51° Northeast 274 315 25,000  Level Salt Lake Center
Sun 03:41:04 PM 43.4181 -115.5260 51° Northeast 268 308 25,000  Level Salt Lake Center
Sun 03:42:04 PM 43.4628 -115.4490 51° Northeast 268 308 25,000  Level Salt Lake Center
Sun 03:43:04 PM 43.5056 -115.3750 51° Northeast 268 308 25,000  Level Salt Lake Center
Sun 03:44:04 PM 43.5525 -115.2960 53° Northeast 268 308 25,000  Level Salt Lake Center
Sun 03:45:04 PM 43.6017 -115.2070 51° Northeast 268 308 25,000  Level Salt Lake Center
Sun 03:46:04 PM 43.6486 -115.1280 51° Northeast 268 308 25,000  Level Salt Lake Center
Sun 03:47:04 PM 43.6911 -115.0560 51° Northeast 268 308 25,000  Level Salt Lake Center
Sun 03:48:03 PM 43.7422 -114.9680 51° Northeast 268 308 25,000  Level Salt Lake Center
Sun 03:49:04 PM 43.7867 -114.8910 51° Northeast 268 308 25,000  Level Salt Lake Center
Sun 03:50:04 PM 43.8333 -114.8100 54° Northeast 268 308 25,000  Level Salt Lake Center
Sun 03:51:04 PM 43.8714 -114.7380 53° Northeast 268 308 25,000  Level Salt Lake Center
Sun 03:52:03 PM 43.9203 -114.6490 50° Northeast 268 308 25,000  Level Salt Lake Center
Sun 03:53:04 PM 43.9667 -114.5710 51° Northeast 268 308 25,000  Level Salt Lake Center
Sun 03:54:04 PM 44.0108 -114.4960 54° Northeast 268 308 25,000  Level Salt Lake Center
Sun 03:55:04 PM 44.0486 -114.4230 50° Northeast 262 302 25,000  Level Salt Lake Center
Sun 03:56:04 PM 44.0992 -114.3400 54° Northeast 262 302 25,000  Level Salt Lake Center
Sun 03:57:03 PM 44.1414 -114.2580 52° Northeast 257 296 25,000  Level Salt Lake Center
Sun 03:58:04 PM 44.1853 -114.1800 50° Northeast 257 296 25,000  Level Salt Lake Center
Sun 03:59:03 PM 44.2250 -114.1130 52° Northeast 262 302 25,000  Level Salt Lake Center
Sun 04:00:04 PM 44.2756 -114.0230 51° Northeast 262 302 25,000  Level Salt Lake Center
Sun 04:01:04 PM 44.3214 -113.9440 52° Northeast 262 302 25,000  Level Salt Lake Center
Sun 04:02:04 PM 44.3694 -113.8590 39° Northeast 262 302 25,000  Level Salt Lake Center
Sun 04:03:04 PM 44.4256 -113.7960 14° North 262 302 25,000  Level Salt Lake Center
Sun 04:04:04 PM 44.4992 -113.7700 24° Northeast 264 304 25,000 -250 Level Salt Lake Center
Sun 04:05:04 PM 44.5647 -113.7300 20° North 269 310 24,500 -600 Descending Salt Lake Center
Sun 04:06:04 PM 44.6428 -113.6900 30° Northeast 288 331 23,800 -850 Descending Salt Lake Center
Sun 04:07:04 PM 44.7150 -113.6320 24° Northeast 278 320 22,800 -1,050 Descending Salt Lake Center
Sun 04:08:04 PM 44.7869 -113.5860 34° Northeast 278 320 21,700 -1,150 Descending Salt Lake Center
Sun 04:09:04 PM 44.8403 -113.5360 26° Northeast 263 303 20,500 -1,450 Descending Salt Lake Center
Sun 04:10:04 PM 44.9039 -113.4930 25° Northeast 250 288 18,800 -1,714 Descending Salt Lake Center
Sun 04:11:03 PM 44.9694 -113.4490 24° Northeast 245 282 17,100 -1,311 Descending Salt Lake Center
Sun 04:12:03 PM 45.0161 -113.4190 25° Northeast 239 275 16,200 -1,190 Descending Salt Lake Center
Sun 04:13:04 PM 45.0817 -113.3750 26° Northeast 222 255 14,700 -744 Descending Salt Lake Center
Sun 04:14:04 PM 45.1303 -113.3420 27° Northeast 217 250 14,700 -50 Level Salt Lake Center
Sun 04:15:03 PM 45.1894 -113.3000 34° Northeast 212 244 14,600 -50 Descending Salt Lake Center
Sun 04:16:04 PM 45.2364 -113.2550 28° Northeast 213 245 14,600  Level Salt Lake Center
Sun 04:17:03 PM 45.2914 -113.2130 32° Northeast 213 245 14,600  Level Salt Lake Center
Sun 04:18:04 PM 45.3358 -113.1740 31° Northeast 208 239 14,600 -99 Level Salt Lake Center
Sun 04:19:04 PM 45.3889 -113.1290 36° Northeast 213 245 14,400 -50 Descending Salt Lake Center
Sun 04:20:04 PM 45.4419 -113.0750 36° Northeast 218 251 14,500 -50 Climbing Salt Lake Center
Sun 04:21:04 PM 45.4931 -113.0210 33° Northeast 213 245 14,300 -50 Descending Salt Lake Center
Sun 04:22:03 PM 45.5397 -112.9780 17° North 218 251 14,400 -101 Climbing Salt Lake Center
Sun 04:23:03 PM 45.6069 -112.9480 37° Northeast 218 251 14,100 -645 Descending Salt Lake Center
Sun 04:24:04 PM 45.6600 -112.8910 31° Northeast 218 251 13,100 -744 Descending Salt Lake Center
Sun 04:25:04 PM 45.7128 -112.8450 42° Northeast 223 257 12,600 -300 Descending Salt Lake Center
Sun 04:26:04 PM 45.7575 -112.7870 40° Northeast 223 257 12,500 -202 Descending Salt Lake Center
Sun 04:27:03 PM 45.7981 -112.7380 40° Northeast 204 235 12,200 -250 Descending Salt Lake Center
Sun 04:28:04 PM 45.8406 -112.6860 42° Northeast 199 229 12,000 -700 Descending Salt Lake Center
Sun 04:29:03 PM 45.8831 -112.6310 42° Northeast 194 223 10,800 -1,220 Descending Salt Lake Center

Login

Don't have an account? Register now (free) for customized features, flight alerts, and more!